Time;durP1;ratioP1;P1;durP2;ratioP2;P2;SDS_P1;SDS_P2;PMS_P1;PMS_P2;Temp;Humidity;BMP_temperature;BMP_pressure;BME280_temperature;BME280_humidity;BME280_pressure;Samples;Min_cycle;Max_cycle;Signal;HPM_P1;HPM_P2
2022/05/12 00:00:16;;;;;;;4.35;1.25;;;;;;;12.14;88.21;100151.06;5097774;28;20409;-80
2022/05/12 00:02:44;;;;;;;3.15;1.23;;;;;;;12.00;88.56;100165.88;5115549;28;20066;-80
2022/05/12 00:05:12;;;;;;;6.07;1.30;;;;;;;12.17;89.42;100165.81;5096757;28;20083;-79
2022/05/12 00:07:40;;;;;;;2.80;1.23;;;;;;;11.60;90.78;100129.41;5096181;28;20396;-80
2022/05/12 00:10:09;;;;;;;4.13;1.40;;;;;;;11.93;91.85;100163.56;5076708;28;20055;-80
2022/05/12 00:12:37;;;;;;;1.30;0.90;;;;;;;12.09;87.95;100158.38;5077019;28;20434;-79
2022/05/12 00:15:07;;;;;;;3.83;1.25;;;;;;;11.92;89.72;100166.28;5076286;28;20051;-79
2022/05/12 00:17:34;;;;;;;3.38;1.30;;;;;;;11.56;89.15;100149.72;5076583;28;20055;-80
2022/05/12 00:20:01;;;;;;;3.10;1.10;;;;;;;11.80;87.67;100154.59;5092339;28;20052;-80
2022/05/12 00:22:28;;;;;;;4.25;1.40;;;;;;;11.84;86.51;100155.28;5096776;28;20051;-80
2022/05/12 00:24:55;;;;;;;3.78;1.20;;;;;;;11.70;86.64;100163.88;5115048;28;20050;-81
2022/05/12 00:27:22;;;;;;;2.72;1.10;;;;;;;11.82;87.25;100181.59;5096921;28;20058;-79
2022/05/12 00:29:48;;;;;;;2.83;1.00;;;;;;;11.81;85.72;100166.81;5095045;28;20054;-79
2022/05/12 00:32:15;;;;;;;3.08;1.20;;;;;;;11.92;83.86;100140.03;5114708;28;20054;-80
2022/05/12 00:34:42;;;;;;;2.45;1.05;;;;;;;12.01;82.95;100170.19;5096174;28;20058;-80
2022/05/12 00:37:08;;;;;;;2.53;1.00;;;;;;;12.02;82.91;100167.47;5114512;28;20047;-82
2022/05/12 00:39:36;;;;;;;4.63;1.20;;;;;;;11.99;83.60;100172.91;5095922;28;20050;-80
2022/05/12 00:42:03;;;;;;;5.13;1.20;;;;;;;12.02;83.00;100204.19;5096676;28;20053;-80
2022/05/12 00:44:29;;;;;;;4.22;1.13;;;;;;;11.94;83.01;100169.66;5094980;28;20054;-81
2022/05/12 00:46:56;;;;;;;3.65;1.27;;;;;;;11.70;84.05;100163.88;5095861;28;20405;-80
2022/05/12 00:49:30;;;;;;;3.28;1.25;;;;;;;11.83;83.58;100190.31;5090884;28;20039;-79
2022/05/12 00:52:08;;;;;;;1.80;0.98;;;;;;;12.07;82.62;100206.59;5095894;28;20059;-81
2022/05/12 00:54:41;;;;;;;5.32;1.45;;;;;;;12.06;81.45;100181.31;5114151;28;20369;-80
2022/05/12 00:57:12;;;;;;;4.07;1.15;;;;;;;11.77;84.10;100209.84;5095982;28;20054;-80
2022/05/12 00:59:39;;;;;;;3.30;1.10;;;;;;;11.59;86.60;100201.13;5094060;28;20051;-80
2022/05/12 01:02:14;;;;;;;3.95;1.10;;;;;;;11.83;83.50;100174.56;5095480;28;20819;-80
2022/05/12 01:04:42;;;;;;;2.78;1.00;;;;;;;11.98;83.67;100217.56;5095043;28;20051;-80
2022/05/12 01:07:09;;;;;;;3.08;1.10;;;;;;;11.75;84.12;100194.16;5096347;28;20523;-80
2022/05/12 01:09:36;;;;;;;5.38;1.00;;;;;;;11.82;84.13;100214.84;5094696;28;20048;-80
2022/05/12 01:12:04;;;;;;;3.55;1.20;;;;;;;11.95;84.29;100202.81;5114289;28;20082;-81
2022/05/12 01:14:31;;;;;;;3.30;1.00;;;;;;;11.90;84.19;100228.44;5095918;28;20144;-81
2022/05/12 01:16:59;;;;;;;2.92;1.05;;;;;;;11.69;82.02;100177.94;5113758;28;20593;-81
2022/05/12 01:19:30;;;;;;;1.85;1.00;;;;;;;11.93;82.98;100231.78;5111897;28;20074;-80
2022/05/12 01:21:59;;;;;;;5.00;1.40;;;;;;;11.69;83.80;100219.88;5094590;28;20094;-81
2022/05/12 01:24:36;;;;;;;4.93;1.20;;;;;;;11.56;86.09;100211.75;5094716;28;20048;-80
2022/05/12 01:29:54;;;;;;;1.50;0.90;;;;;;;11.74;82.83;100215.25;5111577;28;20044;-81
2022/05/12 01:32:23;;;;;;;4.38;0.98;;;;;;;11.74;82.70;100207.38;5095163;28;20138;-80
2022/05/12 01:34:52;;;;;;;3.40;1.10;;;;;;;11.75;83.60;100216.94;5094544;28;20036;-81
2022/05/12 01:37:20;;;;;;;4.20;1.30;;;;;;;11.75;84.39;100223.03;5093886;28;20698;-81
2022/05/12 01:39:47;;;;;;;3.60;1.10;;;;;;;11.55;85.53;100223.19;5090724;28;20648;-81
2022/05/12 01:42:15;;;;;;;2.67;1.13;;;;;;;11.63;86.20;100217.56;5095234;28;20048;-80
2022/05/12 01:44:42;;;;;;;2.88;1.33;;;;;;;11.44;87.28;100199.25;5094071;28;20098;-81
2022/05/12 01:47:11;;;;;;;3.33;1.10;;;;;;;11.70;85.67;100219.78;5091444;28;20054;-81
2022/05/12 01:49:38;;;;;;;3.63;1.20;;;;;;;11.77;83.00;100202.84;5093768;28;20043;-81
2022/05/12 01:52:06;;;;;;;1.70;0.90;;;;;;;11.69;85.32;100205.00;5113225;28;20405;-80
2022/05/12 01:54:32;;;;;;;3.60;1.10;;;;;;;11.43;86.44;100174.84;5112680;28;20135;-80
2022/05/12 01:56:59;;;;;;;4.57;1.35;;;;;;;11.54;84.85;100219.72;5094659;28;20055;-80
2022/05/12 01:59:26;;;;;;;3.25;1.00;;;;;;;11.52;86.71;100236.44;5111872;28;20607;-80
2022/05/12 02:01:53;;;;;;;8.18;1.25;;;;;;;11.61;87.54;100245.63;5112827;28;20057;-79
2022/05/12 02:04:20;;;;;;;3.47;1.10;;;;;;;11.63;87.20;100241.16;5094191;28;20048;-80
2022/05/12 02:06:46;;;;;;;4.60;1.00;;;;;;;11.34;89.25;100241.66;5094476;28;20520;-80
2022/05/12 02:09:14;;;;;;;1.65;1.00;;;;;;;11.26;nan;100214.13;5089981;28;20052;-80
2022/05/12 02:11:41;;;;;;;4.88;1.10;;;;;;;11.23;92.57;100237.88;5090685;28;20059;-80
2022/05/12 02:14:08;;;;;;;2.95;1.20;;;;;;;11.24;91.46;100231.69;5090507;28;20489;-80
2022/05/12 02:16:35;;;;;;;2.78;1.02;;;;;;;11.46;89.45;100258.56;5094514;28;20069;-78
2022/05/12 02:19:05;;;;;;;2.97;1.20;;;;;;;10.87;89.91;100202.03;5111490;28;20044;-78
2022/05/12 02:21:32;;;;;;;4.95;1.10;;;;;;;11.10;90.38;100243.72;5094572;28;20060;-78
2022/05/12 02:23:59;;;;;;;5.50;1.20;;;;;;;11.07;89.09;100211.56;5094378;28;20051;-79
2022/05/12 02:26:27;;;;;;;3.08;1.17;;;;;;;11.33;89.08;100252.22;5111969;28;20130;-78
2022/05/12 02:28:54;;;;;;;2.55;1.10;;;;;;;11.32;88.33;100247.91;5089800;28;20056;-78
2022/05/12 02:31:21;;;;;;;3.22;1.10;;;;;;;11.19;89.12;100237.16;5098011;28;20055;-79
2022/05/12 02:33:49;;;;;;;6.35;1.17;;;;;;;11.30;86.71;100220.94;5094279;28;20123;-81
2022/05/12 02:36:15;;;;;;;9.43;1.40;;;;;;;11.23;89.98;100240.50;5094132;28;20047;-80
2022/05/12 02:38:42;;;;;;;4.35;1.10;;;;;;;10.95;89.40;100236.56;5093414;28;20070;-80
2022/05/12 02:41:09;;;;;;;5.88;1.60;;;;;;;11.12;89.80;100251.47;5094117;28;20829;-80
2022/05/12 02:43:36;;;;;;;4.70;1.10;;;;;;;11.35;90.37;100279.19;5094106;28;20040;-80
2022/05/12 02:46:11;;;;;;;5.05;1.20;;;;;;;11.21;91.48;100253.69;5094155;28;20051;-80
2022/05/12 02:48:42;;;;;;;4.45;1.48;;;;;;;11.28;91.93;100285.66;5109667;28;20075;-80
2022/05/12 02:51:10;;;;;;;3.53;1.30;;;;;;;11.09;90.99;100243.78;5094260;28;20075;-80
2022/05/12 02:53:37;;;;;;;5.97;1.25;;;;;;;11.26;90.59;100272.66;5091573;28;20048;-81
2022/05/12 02:56:05;;;;;;;2.88;1.00;;;;;;;11.06;89.83;100233.44;5094257;28;20614;-81
2022/05/12 02:58:33;;;;;;;2.78;1.10;;;;;;;11.17;89.40;100252.97;5086055;28;20062;-81
2022/05/12 03:01:00;;;;;;;2.60;1.10;;;;;;;11.39;91.00;100293.88;5112403;28;20478;-80
2022/05/12 03:03:27;;;;;;;4.93;1.17;;;;;;;11.38;90.97;100277.31;5112467;28;20047;-80
2022/05/12 03:05:55;;;;;;;5.40;1.27;;;;;;;11.06;93.32;100263.09;5112081;28;20051;-81
2022/05/12 03:08:22;;;;;;;5.50;1.33;;;;;;;11.19;95.86;100292.19;5095896;28;20061;-81
2022/05/12 03:10:51;;;;;;;3.38;1.23;;;;;;;11.32;97.07;100284.59;5115826;28;20040;-80
2022/05/12 03:13:18;;;;;;;2.88;1.20;;;;;;;11.20;97.04;100280.78;5098121;28;20060;-81
2022/05/12 03:15:46;;;;;;;3.97;1.58;;;;;;;11.32;99.14;100302.94;5085948;28;20044;-81
2022/05/12 03:18:13;;;;;;;4.45;1.33;;;;;;;10.98;100.00;100300.13;5085668;28;20046;-81
2022/05/12 03:20:40;;;;;;;6.18;1.35;;;;;;;10.96;100.00;100296.75;5095448;28;20052;-81
2022/05/12 03:23:07;;;;;;;3.13;1.15;;;;;;;10.84;100.00;100250.16;5097177;28;20043;-81
2022/05/12 03:25:35;;;;;;;5.60;1.52;;;;;;;11.19;100.00;100269.47;5097085;28;20047;-80
2022/05/12 03:28:02;;;;;;;4.50;1.10;;;;;;;11.18;100.00;100277.41;5096559;28;20103;-80
2022/05/12 03:30:29;;;;;;;3.42;1.27;;;;;;;11.16;100.00;100305.44;5098024;28;20040;-80
2022/05/12 03:32:56;;;;;;;3.67;1.17;;;;;;;10.45;100.00;100232.75;5097167;28;20047;-80
2022/05/12 03:35:23;;;;;;;5.13;1.67;;;;;;;10.61;100.00;100265.16;5113571;28;20047;-80
2022/05/12 03:37:50;;;;;;;4.15;1.40;;;;;;;10.80;100.00;100280.00;5106575;28;20093;-81
2022/05/12 03:40:17;;;;;;;4.30;1.30;;;;;;;11.07;100.00;100284.94;5097304;28;20039;-81
2022/05/12 03:42:45;;;;;;;2.85;1.67;;;;;;;10.90;100.00;100283.06;5115831;28;20047;-81
2022/05/12 03:45:13;;;;;;;7.55;1.30;;;;;;;11.03;100.00;100318.28;5114973;28;20104;-80
2022/05/12 03:47:44;;;;;;;4.35;1.35;;;;;;;10.87;100.00;100314.63;5104433;28;20524;-81
2022/05/12 03:50:19;;;;;;;3.10;1.20;;;;;;;10.89;100.00;100311.06;5096766;28;20073;-80
2022/05/12 03:52:48;;;;;;;3.22;1.17;;;;;;;11.08;100.00;100311.03;5097145;28;20101;-80
2022/05/12 03:55:17;;;;;;;5.80;1.23;;;;;;;11.10;100.00;100288.25;5114728;28;20089;-80
2022/05/12 03:57:45;;;;;;;4.18;1.42;;;;;;;10.78;100.00;100301.06;5095703;28;20131;-80
2022/05/12 04:00:24;;;;;;;6.45;1.35;;;;;;;10.94;100.00;100275.03;5115099;28;20122;-80
2022/05/12 04:02:51;;;;;;;3.10;1.17;;;;;;;11.32;100.00;100316.06;5097164;28;20052;-80
2022/05/12 04:05:20;;;;;;;6.05;1.55;;;;;;;10.71;100.00;100288.31;5096749;28;20082;-80
2022/05/12 04:07:49;;;;;;;4.10;1.33;;;;;;;10.96;100.00;100288.00;5096222;28;20055;-80
2022/05/12 04:10:16;;;;;;;3.08;1.20;;;;;;;10.76;100.00;100283.69;5115164;28;20051;-80
2022/05/12 04:12:43;;;;;;;4.28;1.30;;;;;;;10.74;100.00;100272.47;5094477;28;20055;-80
2022/05/12 04:15:11;;;;;;;4.32;1.10;;;;;;;11.24;100.00;100331.28;5112824;28;20044;-80
2022/05/12 04:17:38;;;;;;;2.97;1.20;;;;;;;11.00;100.00;100276.50;5076365;28;20052;-80
2022/05/12 04:20:12;;;;;;;4.53;1.40;;;;;;;11.47;98.75;100322.34;5114455;28;20482;-80
2022/05/12 04:22:43;;;;;;;5.90;1.20;;;;;;;11.31;98.42;100323.06;5096721;28;20079;-80
2022/05/12 04:25:10;;;;;;;4.45;1.30;;;;;;;11.64;94.36;100329.41;5096852;28;20047;-81
2022/05/12 04:27:39;;;;;;;4.93;1.52;;;;;;;11.51;95.00;100316.00;5114276;28;20051;-81
2022/05/12 04:30:08;;;;;;;4.10;1.20;;;;;;;11.20;98.11;100310.47;5114663;28;20051;-81
2022/05/12 04:32:35;;;;;;;4.18;1.20;;;;;;;11.44;99.44;100325.09;5096128;28;20047;-80
2022/05/12 04:35:14;;;;;;;4.63;1.23;;;;;;;11.35;96.90;100293.16;5114698;28;20389;-81
2022/05/12 04:37:47;;;;;;;5.25;1.65;;;;;;;10.88;99.72;100308.50;5113792;28;20055;-81
2022/05/12 04:40:20;;;;;;;4.07;1.30;;;;;;;11.26;98.23;100322.44;5096191;28;20040;-81
2022/05/12 04:42:49;;;;;;;3.10;1.15;;;;;;;11.43;99.85;100333.91;5108359;28;20495;-81
2022/05/12 04:45:20;;;;;;;5.72;1.60;;;;;;;11.43;99.55;100339.13;5113286;28;20056;-81
2022/05/12 04:47:47;;;;;;;3.25;1.15;;;;;;;11.10;98.33;100287.38;5112390;28;20052;-80
2022/05/12 04:50:18;;;;;;;3.60;1.20;;;;;;;11.23;100.00;100304.25;5096148;28;20077;-80
2022/05/12 04:52:46;;;;;;;3.33;1.20;;;;;;;11.04;100.00;100334.84;5087377;28;20393;-81
2022/05/12 04:55:15;;;;;;;5.57;1.70;;;;;;;10.69;100.00;100332.88;5111749;28;20486;-80
2022/05/12 04:57:44;;;;;;;5.45;1.50;;;;;;;10.57;100.00;100350.00;5095608;28;20055;-80
2022/05/12 05:00:18;;;;;;;6.28;1.88;;;;;;;10.56;100.00;100345.66;5095867;28;20051;-81
2022/05/12 05:02:45;;;;;;;6.88;1.67;;;;;;;10.35;100.00;100297.72;5088377;28;20473;-80
2022/05/12 05:05:12;;;;;;;3.97;1.33;;;;;;;10.93;100.00;100356.28;5103717;28;20153;-81
2022/05/12 05:07:41;;;;;;;5.30;1.80;;;;;;;10.91;100.00;100324.91;5085232;28;20042;-81
2022/05/12 05:10:11;;;;;;;6.38;1.80;;;;;;;10.91;100.00;100360.75;5091799;28;20131;-81
2022/05/12 05:12:42;;;;;;;6.03;1.33;;;;;;;10.68;100.00;100327.69;5086378;28;20043;-80
2022/05/12 05:15:12;;;;;;;4.22;1.33;;;;;;;10.87;100.00;100320.75;5087904;28;20046;-80
2022/05/12 05:17:41;;;;;;;3.30;1.20;;;;;;;11.12;100.00;100337.94;5087034;28;20043;-80
2022/05/12 05:20:12;;;;;;;3.92;1.30;;;;;;;11.29;100.00;100358.97;5105670;28;20479;-80
2022/05/12 05:22:39;;;;;;;5.80;1.23;;;;;;;11.33;100.00;100321.22;5084114;28;20492;-81
2022/05/12 05:25:06;;;;;;;6.47;1.40;;;;;;;11.26;100.00;100311.97;5103986;28;20423;-81
2022/05/12 05:27:34;;;;;;;4.25;1.10;;;;;;;11.26;100.00;100321.56;5082815;28;20125;-81
2022/05/12 05:30:02;;;;;;;2.83;1.05;;;;;;;11.47;98.28;100338.06;5082093;28;20074;-81
2022/05/12 05:32:29;;;;;;;2.97;1.10;;;;;;;11.62;95.84;100362.72;5084490;28;20520;-80
2022/05/12 05:34:56;;;;;;;5.88;1.30;;;;;;;11.30;97.08;100344.13;5102832;28;20052;-80
2022/05/12 05:37:23;;;;;;;2.78;1.10;;;;;;;11.28;94.10;100322.34;5107035;28;20437;-80
2022/05/12 05:39:50;;;;;;;4.47;1.20;;;;;;;11.28;93.51;100340.69;5108610;28;20461;-81
2022/05/12 05:42:19;;;;;;;7.47;1.20;;;;;;;11.69;91.42;100343.97;5089851;28;20454;-81
2022/05/12 05:44:47;;;;;;;2.95;0.93;;;;;;;11.88;92.07;100391.16;5087339;28;20067;-80
2022/05/12 05:47:14;;;;;;;4.40;1.10;;;;;;;11.78;92.20;100367.13;5106328;28;20058;-80
2022/05/12 05:49:41;;;;;;;4.18;1.20;;;;;;;11.86;91.38;100387.72;5108892;28;20055;-81
2022/05/12 05:54:55;;;;;;;1.95;1.00;;;;;;;11.90;92.08;100355.22;5109690;28;20057;-82
2022/05/12 05:57:30;;;;;;;3.55;1.10;;;;;;;12.06;91.58;100375.47;5103034;28;20402;-82
2022/05/12 05:59:58;;;;;;;2.55;0.95;;;;;;;11.93;91.42;100354.22;5102963;28;20054;-83
2022/05/12 06:02:25;;;;;;;3.20;1.02;;;;;;;12.22;91.70;100389.53;5087321;28;20055;-83
2022/05/12 06:04:52;;;;;;;2.05;1.02;;;;;;;12.02;89.71;100347.66;5100490;28;20052;-83
2022/05/12 06:07:19;;;;;;;1.70;1.00;;;;;;;12.17;89.43;100365.28;5086865;28;20147;-83
2022/05/12 06:09:46;;;;;;;2.70;1.00;;;;;;;11.76;92.08;100344.53;5089554;28;20048;-83
2022/05/12 06:12:12;;;;;;;2.50;1.00;;;;;;;11.73;93.23;100345.53;5105086;28;20050;-82
2022/05/12 06:14:39;;;;;;;4.63;1.20;;;;;;;11.68;95.17;100350.13;5089178;28;20131;-83
2022/05/12 06:17:06;;;;;;;2.95;1.20;;;;;;;11.60;96.40;100381.13;5084832;28;20051;-83
2022/05/12 06:19:34;;;;;;;2.90;1.10;;;;;;;12.15;94.28;100415.22;5085236;28;20058;-83
2022/05/12 06:22:01;;;;;;;5.13;1.30;;;;;;;11.66;97.35;100372.13;5100812;28;20048;-83
2022/05/12 06:24:28;;;;;;;4.93;1.10;;;;;;;11.94;95.65;100400.53;5086335;28;20071;-83
2022/05/12 06:26:55;;;;;;;2.85;1.10;;;;;;;11.47;97.46;100356.41;5083967;28;20657;-83
2022/05/12 06:29:22;;;;;;;4.15;1.20;;;;;;;11.57;97.92;100399.63;5105805;28;20400;-83
2022/05/12 06:31:48;;;;;;;4.25;1.10;;;;;;;11.97;97.47;100413.50;5103963;28;20046;-82
2022/05/12 06:34:15;;;;;;;5.45;1.65;;;;;;;11.88;96.57;100387.66;5085712;28;20523;-82
2022/05/12 06:36:43;;;;;;;6.90;1.48;;;;;;;11.62;96.40;100368.81;5101939;28;20043;-83
2022/05/12 06:39:11;;;;;;;3.85;1.05;;;;;;;11.71;97.42;100372.75;5083851;28;20078;-83
2022/05/12 06:41:38;;;;;;;3.53;1.20;;;;;;;12.18;92.40;100356.47;5088472;28;20046;-82
2022/05/12 06:44:05;;;;;;;3.78;1.30;;;;;;;12.08;93.34;100399.88;5106518;28;20432;-83
2022/05/12 06:46:32;;;;;;;4.82;1.27;;;;;;;12.19;88.98;100367.84;5088345;28;20093;-83
2022/05/12 06:49:02;;;;;;;4.95;1.20;;;;;;;12.68;87.41;100426.59;5111289;28;20047;-83
2022/05/12 06:51:29;;;;;;;7.50;1.35;;;;;;;12.52;84.91;100389.75;5108029;28;20550;-82
2022/05/12 06:53:56;;;;;;;5.13;1.48;;;;;;;12.62;83.10;100403.25;5102179;28;20074;-82
2022/05/12 06:56:23;;;;;;;8.52;1.83;;;;;;;12.50;80.47;100401.25;5082582;28;20079;-82
2022/05/12 06:58:49;;;;;;;3.63;1.20;;;;;;;12.65;79.14;100376.81;5088091;28;20052;-81
2022/05/12 07:01:16;;;;;;;4.00;1.20;;;;;;;12.90;79.33;100400.03;5093600;28;20047;-82
2022/05/12 07:03:43;;;;;;;4.53;1.45;;;;;;;12.66;80.13;100370.66;5112287;28;20118;-81
2022/05/12 07:06:10;;;;;;;4.80;1.02;;;;;;;13.19;79.99;100428.31;5092613;28;20051;-81
2022/05/12 07:08:41;;;;;;;7.82;1.63;;;;;;;13.06;81.24;100436.03;5089931;28;20082;-82
2022/05/12 07:11:10;;;;;;;8.02;1.33;;;;;;;12.62;81.84;100405.88;5090331;28;20053;-81
2022/05/12 07:13:37;;;;;;;5.13;1.42;;;;;;;12.86;79.99;100429.19;5102197;28;20132;-81
2022/05/12 07:16:05;;;;;;;3.03;0.90;;;;;;;13.01;80.73;100430.16;5093103;28;20481;-81
2022/05/12 07:18:34;;;;;;;2.22;1.08;;;;;;;13.07;82.03;100427.22;5092408;28;20055;-81
2022/05/12 07:26:50;;;;;;;4.05;1.15;;;;;;;13.12;78.41;100422.56;5095801;28;20572;-81
2022/05/12 07:29:20;;;;;;;5.07;1.42;;;;;;;13.34;77.87;100434.59;5088189;28;20055;-81
2022/05/12 07:31:48;;;;;;;5.25;1.30;;;;;;;13.47;76.45;100441.75;5093729;28;20393;-82
2022/05/12 07:34:17;;;;;;;3.85;1.25;;;;;;;13.38;76.57;100446.63;5093121;28;20059;-82
2022/05/12 07:36:46;;;;;;;6.55;1.75;;;;;;;13.67;75.15;100437.16;5110937;28;20477;-82
2022/05/12 07:39:15;;;;;;;3.53;1.15;;;;;;;13.85;74.03;100444.03;5092944;28;20044;-82
2022/05/12 07:41:42;;;;;;;7.05;1.48;;;;;;;13.59;74.56;100452.50;5112021;28;20069;-81
2022/05/12 07:44:11;;;;;;;6.03;1.48;;;;;;;13.59;75.17;100458.63;5076969;28;20050;-81
2022/05/12 07:46:37;;;;;;;5.10;1.50;;;;;;;13.32;75.01;100439.94;5093220;28;20058;-82
2022/05/12 07:49:04;;;;;;;6.05;1.30;;;;;;;13.76;75.63;100462.13;5089808;28;20060;-81
2022/05/12 07:51:31;;;;;;;3.75;1.20;;;;;;;14.15;74.58;100461.66;5089959;28;20102;-81
2022/05/12 07:53:58;;;;;;;7.78;1.60;;;;;;;14.05;73.27;100468.38;5103121;28;20054;-82
2022/05/12 07:56:27;;;;;;;6.45;1.20;;;;;;;14.16;70.05;100457.25;5096713;28;20126;-83
2022/05/12 07:58:55;;;;;;;6.78;1.50;;;;;;;14.76;68.67;100480.13;5087763;28;20044;-83
2022/05/12 08:01:23;;;;;;;5.00;1.20;;;;;;;14.35;67.61;100457.88;5099136;28;20389;-83
2022/05/12 08:03:51;;;;;;;3.60;1.02;;;;;;;14.79;68.44;100490.50;5096737;28;20051;-83
2022/05/12 08:06:20;;;;;;;6.53;1.40;;;;;;;14.43;68.61;100475.91;5097267;28;20063;-81
2022/05/12 08:08:49;;;;;;;5.05;1.40;;;;;;;14.62;66.95;100488.84;5115034;28;21143;-83
2022/05/12 08:11:16;;;;;;;6.13;1.60;;;;;;;14.25;65.70;100454.06;5081235;28;20526;-87
2022/05/12 08:13:46;;;;;;;5.53;1.30;;;;;;;14.12;64.98;100432.88;5086281;28;20047;-87
2022/05/12 08:16:18;;;;;;;6.55;1.60;;;;;;;14.19;64.73;100434.22;5111429;28;20071;-87
2022/05/12 08:18:47;;;;;;;5.38;1.25;;;;;;;14.69;64.69;100455.09;5091493;28;20075;-87
2022/05/12 08:21:14;;;;;;;4.85;1.30;;;;;;;14.97;64.40;100465.69;5086543;28;20051;-87
2022/05/12 08:23:41;;;;;;;5.05;1.10;;;;;;;15.32;63.54;100446.03;5109736;28;20075;-86
2022/05/12 08:26:09;;;;;;;7.60;1.15;;;;;;;15.36;63.45;100485.28;5097159;28;20043;-86
2022/05/12 08:28:37;;;;;;;6.43;1.52;;;;;;;15.16;63.24;100451.38;5106834;28;20055;-86
2022/05/12 08:31:04;;;;;;;5.80;1.40;;;;;;;15.35;61.93;100407.09;5103246;28;20627;-86
2022/05/12 08:33:36;;;;;;;4.80;1.20;;;;;;;15.59;62.65;100414.41;5096427;28;20056;-86
2022/05/12 08:36:04;;;;;;;7.57;1.40;;;;;;;15.29;61.67;100449.69;5096791;28;20727;-86
2022/05/12 08:38:31;;;;;;;3.45;1.08;;;;;;;15.35;60.85;100438.75;5092138;28;20052;-86
2022/05/12 08:40:58;;;;;;;7.03;1.23;;;;;;;15.69;61.16;100455.09;5093727;28;20051;-86
2022/05/12 08:43:34;;;;;;;5.07;1.35;;;;;;;15.44;60.74;100424.16;5096919;28;20053;-86
2022/05/12 08:46:06;;;;;;;6.75;1.58;;;;;;;15.61;61.11;100433.63;5097193;28;20050;-86
2022/05/12 08:48:38;;;;;;;4.97;1.40;;;;;;;15.44;60.34;100436.47;5092825;28;20060;-86
2022/05/12 08:51:06;;;;;;;4.50;1.10;;;;;;;15.33;65.18;100471.44;5092643;28;20047;-86
2022/05/12 08:53:48;;;;;;;6.05;1.27;;;;;;;15.25;68.61;100429.72;5096844;28;20043;-86
2022/05/12 08:56:19;;;;;;;4.15;1.00;;;;;;;14.56;73.33;100452.31;5096550;28;20052;-87
2022/05/12 08:58:47;;;;;;;7.05;1.52;;;;;;;14.85;74.40;100455.88;5095035;28;20076;-87
2022/05/12 09:01:28;;;;;;;9.13;1.55;;;;;;;14.67;74.69;100431.47;5095596;28;20048;-86
2022/05/12 09:04:10;;;;;;;3.17;1.00;;;;;;;15.58;66.57;100460.19;5114438;28;20047;-86
2022/05/12 09:06:53;;;;;;;6.22;1.20;;;;;;;15.85;65.69;100454.16;5095448;28;20051;-87
2022/05/12 09:09:33;;;;;;;6.17;1.50;;;;;;;15.67;62.42;100462.28;5092905;28;20677;-87
2022/05/12 09:12:05;;;;;;;5.70;1.30;;;;;;;15.68;63.35;100468.41;5075050;28;20048;-86
2022/05/12 09:14:45;;;;;;;6.35;1.40;;;;;;;15.67;63.59;100450.84;5091178;28;20461;-86
2022/05/12 09:17:21;;;;;;;8.07;1.42;;;;;;;14.56;64.02;100437.34;5089034;28;20047;-86
2022/05/12 09:19:48;;;;;;;7.03;1.45;;;;;;;15.32;64.49;100473.22;5091032;28;20127;-86
2022/05/12 09:22:24;;;;;;;8.00;1.70;;;;;;;15.62;63.20;100468.78;5106328;28;20405;-85
2022/05/12 09:24:51;;;;;;;5.35;1.40;;;;;;;15.49;63.22;100463.41;5114044;28;20051;-85
2022/05/12 09:27:32;;;;;;;5.05;1.10;;;;;;;16.13;62.38;100448.78;5095282;28;20048;-85
2022/05/12 09:29:59;;;;;;;7.20;1.30;;;;;;;16.21;60.98;100465.94;5122445;27;20043;-85
2022/05/12 09:32:33;;;;;;;5.40;1.17;;;;;;;16.86;60.02;100452.75;5101617;28;20047;-85
2022/05/12 09:35:18;;;;;;;3.60;1.10;;;;;;;17.27;58.52;100427.88;5107791;28;20058;-85
2022/05/12 09:37:45;;;;;;;4.38;1.27;;;;;;;16.85;58.02;100431.72;5105213;28;20442;-86
2022/05/12 09:40:17;;;;;;;7.97;1.50;;;;;;;16.95;58.33;100461.03;5094697;28;20058;-85
2022/05/12 09:42:56;;;;;;;5.50;1.27;;;;;;;16.71;56.85;100443.19;5094239;28;20078;-85
2022/05/12 09:45:25;;;;;;;7.47;1.30;;;;;;;17.32;58.07;100459.31;5095218;28;20061;-85
2022/05/12 09:48:11;;;;;;;7.45;1.58;;;;;;;17.69;56.24;100440.81;5111626;28;20043;-86
2022/05/12 09:50:39;;;;;;;5.03;1.30;;;;;;;17.85;54.31;100435.25;5094774;28;20518;-86
2022/05/12 09:53:09;;;;;;;3.00;0.90;;;;;;;18.17;52.79;100458.56;5094362;28;20093;-85
2022/05/12 09:55:39;;;;;;;5.85;1.10;;;;;;;17.88;51.53;100450.94;5091042;28;20052;-86
2022/05/12 09:58:28;;;;;;;4.97;1.10;;;;;;;18.12;49.22;100423.63;5094387;28;20054;-86
2022/05/12 10:01:14;;;;;;;4.82;1.30;;;;;;;17.97;50.60;100436.16;5095152;28;20051;-86
2022/05/12 10:09:52;;;;;;;7.63;1.42;;;;;;;18.42;46.61;100433.72;5110215;28;20082;-86
2022/05/12 10:12:34;;;;;;;4.40;1.27;;;;;;;18.76;45.23;100383.41;5094290;28;20047;-85
2022/05/12 10:15:19;;;;;;;7.28;1.67;;;;;;;18.84;43.66;100423.50;5113251;28;20138;-85
2022/05/12 10:18:31;;;;;;;7.68;1.55;;;;;;;17.95;43.77;100424.84;5093340;28;20058;-85
2022/05/12 10:21:21;;;;;;;6.50;1.60;;;;;;;18.16;42.81;100410.00;5113812;28;20051;-85
2022/05/12 10:24:17;;;;;;;7.93;1.40;;;;;;;18.07;41.95;100408.03;5108468;27;20131;-85
2022/05/12 10:27:06;;;;;;;7.13;1.42;;;;;;;17.81;43.22;100412.56;5117439;27;20056;-85
2022/05/12 10:29:56;;;;;;;6.07;1.50;;;;;;;17.89;42.43;100373.19;5093524;28;20412;-85
2022/05/12 10:32:42;;;;;;;5.90;1.10;;;;;;;18.65;41.35;100401.97;5112907;28;20043;-85
2022/05/12 10:35:25;;;;;;;8.93;1.70;;;;;;;17.78;41.78;100370.47;5095221;28;20058;-85
2022/05/12 10:37:58;;;;;;;7.63;1.50;;;;;;;18.94;41.74;100389.94;5112295;28;20051;-85
2022/05/12 10:40:41;;;;;;;4.72;1.40;;;;;;;18.38;39.72;100381.91;5095509;28;20835;-85
2022/05/12 10:43:33;;;;;;;7.00;1.45;;;;;;;18.27;41.63;100395.09;5095100;28;20118;-85
2022/05/12 10:46:05;;;;;;;5.75;1.70;;;;;;;18.43;39.79;100389.50;5091293;28;20127;-85
2022/05/12 10:48:43;;;;;;;6.30;1.45;;;;;;;18.64;39.95;100389.66;5093796;28;20051;-88
2022/05/12 10:51:47;;;;;;;7.30;1.60;;;;;;;18.75;40.35;100376.41;5094217;28;20508;-87
2022/05/12 10:54:50;;;;;;;5.47;1.30;;;;;;;19.06;39.97;100382.84;5094189;28;20046;-87
2022/05/12 10:57:26;;;;;;;5.32;1.38;;;;;;;18.51;41.87;100385.28;5089844;28;20051;-87
2022/05/12 11:00:08;;;;;;;7.82;1.52;;;;;;;18.42;40.99;100379.88;5110479;28;20047;-87
2022/05/12 11:02:35;;;;;;;6.80;1.48;;;;;;;18.38;41.95;100373.97;5089032;28;20476;-86
2022/05/12 11:05:31;;;;;;;6.93;1.70;;;;;;;18.73;45.09;100373.03;5074896;28;20134;-85
2022/05/12 11:08:09;;;;;;;9.70;1.83;;;;;;;18.03;47.67;100378.28;5080205;28;20131;-85
2022/05/12 11:10:52;;;;;;;5.50;1.40;;;;;;;18.50;44.76;100362.41;5093087;28;20054;-84
2022/05/12 11:13:30;;;;;;;6.53;1.60;;;;;;;18.25;45.45;100370.53;5093557;28;20047;-84
2022/05/12 11:16:09;;;;;;;7.10;1.67;;;;;;;18.83;46.07;100365.25;5094027;28;20478;-85
2022/05/12 11:18:46;;;;;;;5.70;1.27;;;;;;;18.73;45.92;100335.91;5090362;28;20547;-85
2022/05/12 11:21:20;;;;;;;8.02;1.67;;;;;;;18.49;45.92;100350.13;5104376;28;20051;-86
2022/05/12 11:24:05;;;;;;;7.20;1.27;;;;;;;18.36;46.86;100342.28;5093597;28;20044;-85
2022/05/12 11:26:56;;;;;;;10.75;1.20;;;;;;;18.44;46.67;100339.03;5093763;28;20746;-85
2022/05/12 11:29:52;;;;;;;5.68;1.30;;;;;;;18.50;46.22;100348.31;5095610;28;20765;-85
2022/05/12 11:32:33;;;;;;;6.75;1.42;;;;;;;18.89;45.41;100348.84;5115937;28;20127;-85
2022/05/12 11:35:04;;;;;;;5.72;1.48;;;;;;;18.45;45.47;100324.81;5115263;28;20043;-85
2022/05/12 11:37:34;;;;;;;5.20;1.38;;;;;;;18.36;45.89;100352.88;5098109;28;20074;-85
2022/05/12 11:40:30;;;;;;;6.57;1.48;;;;;;;18.91;45.28;100347.78;5114920;28;20040;-85
2022/05/12 11:46:21;;;;;;;5.72;1.20;;;;;;;19.27;44.67;100340.50;5111316;28;20557;-85
2022/05/12 11:49:02;;;;;;;5.38;1.10;;;;;;;19.07;45.62;100343.88;5097122;28;20052;-87
2022/05/12 11:51:48;;;;;;;5.25;1.27;;;;;;;19.13;44.39;100307.09;5097306;28;20504;-85
2022/05/12 11:54:30;;;;;;;5.57;1.27;;;;;;;18.73;46.39;100344.72;5097124;28;20092;-87
2022/05/12 11:57:03;;;;;;;5.32;1.35;;;;;;;18.27;46.67;100334.16;5098253;28;20482;-87
2022/05/12 11:59:31;;;;;;;7.88;1.30;;;;;;;18.57;46.74;100352.16;5093867;28;20063;-87
2022/05/12 12:02:26;;;;;;;6.20;1.40;;;;;;;18.75;46.80;100342.78;5094126;28;20055;-86